Time;durP1;ratioP1;P1;durP2;ratioP2;P2;SDS_P1;SDS_P2;PMS_P1;PMS_P2;Temp;Humidity;BMP_temperature;BMP_pressure;BME280_temperature;BME280_humidity;BME280_pressure;Samples;Min_cycle;Max_cycle;Signal;HPM_P1;HPM_P2
2021/12/15 01:49:11;;;;;;;32.08;19.20;;;;;;;6.83;100.00;101979.31;5183656;23;20357;-73
2021/12/15 01:52:00;;;;;;;35.08;19.83;;;;;;;6.67;100.00;101982.50;4937633;29;20380;-73
2021/12/15 01:54:52;;;;;;;33.70;19.60;;;;;;;6.59;100.00;101978.88;4936478;29;20471;-72
2021/12/15 01:57:38;;;;;;;36.25;20.27;;;;;;;6.73;100.00;101980.03;4918430;29;20036;-71
2021/12/15 02:00:29;;;;;;;34.10;19.85;;;;;;;6.55;100.00;101976.22;4919250;29;20131;-72
2021/12/15 02:03:15;;;;;;;37.67;21.10;;;;;;;6.67;100.00;101979.88;4918583;29;20042;-72
2021/12/15 02:06:04;;;;;;;34.20;19.63;;;;;;;6.54;100.00;101990.03;4918697;29;20044;-73
2021/12/15 02:08:49;;;;;;;32.45;19.73;;;;;;;6.67;100.00;101992.06;4903963;29;20028;-73
2021/12/15 02:11:36;;;;;;;32.80;19.38;;;;;;;6.89;100.00;101991.56;4917214;29;20063;-73
2021/12/15 02:14:21;;;;;;;33.80;18.92;;;;;;;6.92;100.00;101989.94;4917623;29;20042;-73
2021/12/15 02:17:07;;;;;;;32.65;19.23;;;;;;;7.21;100.00;101985.19;4918418;29;20047;-73
2021/12/15 02:19:54;;;;;;;32.42;19.95;;;;;;;6.87;100.00;101985.47;4917173;29;20020;-72
2021/12/15 02:22:40;;;;;;;35.85;20.80;;;;;;;7.14;100.00;101983.31;4917090;29;20024;-72
2021/12/15 02:25:26;;;;;;;34.90;20.42;;;;;;;6.69;100.00;101977.31;4917603;29;20055;-71
2021/12/15 02:28:12;;;;;;;35.70;20.70;;;;;;;6.82;100.00;101961.94;4918406;29;20028;-73
2021/12/15 02:31:33;;;;;;;34.00;20.10;;;;;;;6.60;100.00;101959.81;4918740;29;20042;-72
2021/12/15 02:37:18;;;;;;;38.38;21.50;;;;;;;6.10;100.00;101944.09;4918038;29;20032;-72
2021/12/15 02:40:10;;;;;;;41.40;22.15;;;;;;;6.16;100.00;101952.88;4918371;29;20024;-71
2021/12/15 02:42:56;;;;;;;35.88;21.52;;;;;;;6.77;100.00;101962.72;4917988;29;20103;-72
2021/12/15 02:45:42;;;;;;;37.97;22.60;;;;;;;5.90;100.00;101948.84;4917279;29;20347;-72
2021/12/15 02:48:27;;;;;;;34.38;21.92;;;;;;;6.51;100.00;101944.00;4903695;29;20043;-75
2021/12/15 02:51:13;;;;;;;40.45;23.88;;;;;;;6.56;100.00;101952.81;4916678;29;20453;-75
2021/12/15 02:54:03;;;;;;;37.63;23.30;;;;;;;6.21;100.00;101947.75;4915649;29;20024;-72
2021/12/15 02:56:52;;;;;;;38.72;22.77;;;;;;;6.45;100.00;101950.84;4917310;29;20036;-72
2021/12/15 02:59:55;;;;;;;36.45;22.20;;;;;;;6.47;100.00;101951.75;4916469;29;20020;-72
2021/12/15 03:05:41;;;;;;;37.05;21.75;;;;;;;6.84;100.00;101954.16;4916027;29;20043;-72
2021/12/15 03:08:49;;;;;;;35.05;21.13;;;;;;;7.12;100.00;101949.41;4917610;29;20060;-72
2021/12/15 03:17:51;;;;;;;36.20;21.85;;;;;;;7.02;100.00;101950.13;4917711;29;20032;-72
2021/12/15 03:20:48;;;;;;;37.67;23.35;;;;;;;6.77;100.00;101947.09;4903924;29;20020;-72
2021/12/15 03:23:47;;;;;;;38.75;23.60;;;;;;;6.66;100.00;101952.09;4916918;29;20123;-73
2021/12/15 03:26:41;;;;;;;37.70;23.42;;;;;;;6.49;100.00;101948.31;4915803;29;20024;-73
2021/12/15 03:36:00;;;;;;;37.63;22.90;;;;;;;7.04;100.00;101948.44;4917237;29;20060;-72
2021/12/15 03:38:42;;;;;;;43.22;25.83;;;;;;;6.90;100.00;101949.03;4916416;29;20134;-73
2021/12/15 03:41:28;;;;;;;41.80;25.35;;;;;;;6.54;100.00;101953.59;4916601;29;20035;-75
2021/12/15 03:44:14;;;;;;;41.83;24.80;;;;;;;6.21;100.00;101955.56;4916778;29;20111;-72
2021/12/15 03:47:02;;;;;;;39.45;24.42;;;;;;;6.52;100.00;101958.81;4915562;29;20398;-73
2021/12/15 03:49:55;;;;;;;41.25;24.80;;;;;;;6.92;100.00;101948.25;5071756;28;20372;-72
2021/12/15 03:52:42;;;;;;;37.67;22.85;;;;;;;6.51;100.00;101957.03;5071621;28;20083;-71
2021/12/15 03:55:30;;;;;;;39.83;24.60;;;;;;;6.64;100.00;101956.44;5070933;28;20047;-72
2021/12/15 03:58:21;;;;;;;41.10;24.55;;;;;;;6.44;100.00;101962.09;5071219;28;20040;-72
2021/12/15 04:01:13;;;;;;;38.35;23.98;;;;;;;6.54;100.00;101964.91;5070871;28;20047;-72
2021/12/15 04:04:01;;;;;;;36.60;23.77;;;;;;;6.86;100.00;101973.28;5070982;28;20032;-72
2021/12/15 04:06:47;;;;;;;44.13;26.15;;;;;;;6.73;100.00;101967.00;5071698;28;20036;-72
2021/12/15 04:09:33;;;;;;;40.25;25.15;;;;;;;6.81;100.00;101969.72;5072366;28;20082;-73
2021/12/15 04:12:20;;;;;;;42.28;24.40;;;;;;;6.74;100.00;101968.75;5071872;28;20036;-72
2021/12/15 04:15:26;;;;;;;39.33;24.02;;;;;;;6.99;100.00;101970.91;5071020;28;20056;-72
2021/12/15 04:18:12;;;;;;;41.50;23.52;;;;;;;6.51;100.00;101972.66;5060101;28;20206;-71
2021/12/15 04:20:58;;;;;;;40.70;23.67;;;;;;;6.32;100.00;101974.88;5071127;28;20033;-73
2021/12/15 04:23:54;;;;;;;39.35;24.15;;;;;;;6.32;100.00;101978.38;5071611;28;20060;-72
2021/12/15 04:26:40;;;;;;;38.75;24.27;;;;;;;6.47;100.00;101975.19;5070708;28;20124;-72
2021/12/15 06:17:36;;;;;;;66.05;31.63;;;;;;;5.64;100.00;101983.81;5317410;23;19926;-73
2021/12/15 06:20:22;;;;;;;58.67;29.58;;;;;;;5.93;100.00;101980.16;4963549;28;20102;-72
2021/12/15 06:23:12;;;;;;;58.22;28.10;;;;;;;5.56;100.00;101984.47;4963366;28;20367;-72
2021/12/15 06:26:01;;;;;;;56.22;27.77;;;;;;;5.79;100.00;101991.91;4963038;28;20019;-72
2021/12/15 06:28:47;;;;;;;52.88;27.00;;;;;;;5.71;100.00;101990.00;4977039;28;20069;-72
2021/12/15 06:31:33;;;;;;;55.15;27.23;;;;;;;6.02;100.00;101995.09;4963044;28;20050;-73
2021/12/15 06:34:19;;;;;;;54.58;27.13;;;;;;;5.43;100.00;102001.50;4962978;28;20066;-73
2021/12/15 06:37:05;;;;;;;55.33;28.05;;;;;;;5.52;100.00;101995.63;4976370;28;20031;-72
2021/12/15 06:39:51;;;;;;;56.60;26.92;;;;;;;5.39;100.00;101981.50;4976573;28;20023;-74
2021/12/15 06:42:39;;;;;;;51.92;26.65;;;;;;;5.71;100.00;101985.72;4976176;28;20207;-73
2021/12/15 06:45:33;;;;;;;51.13;26.63;;;;;;;6.07;100.00;102001.25;4962322;28;20023;-73
2021/12/15 07:00:24;;;;;;;50.63;26.63;;;;;;;5.53;100.00;102033.78;4976423;28;20026;-72
2021/12/15 07:03:10;;;;;;;48.97;25.23;;;;;;;5.63;100.00;102036.66;4976417;28;20358;-73
2021/12/15 07:05:56;;;;;;;48.85;25.90;;;;;;;5.29;100.00;102040.16;4962682;28;20030;-73
2021/12/15 07:08:42;;;;;;;49.25;26.23;;;;;;;5.36;100.00;102047.22;4976076;28;20030;-72
2021/12/15 07:11:28;;;;;;;49.00;26.20;;;;;;;5.51;100.00;102035.47;4976027;28;20053;-72
2021/12/15 07:14:14;;;;;;;44.40;25.17;;;;;;;5.38;100.00;102037.78;4975943;28;20034;-74
2021/12/15 07:17:02;;;;;;;51.85;27.45;;;;;;;5.59;100.00;102044.34;4976223;28;20391;-73
2021/12/15 07:22:46;;;;;;;49.42;27.42;;;;;;;6.18;100.00;102055.25;4976406;28;20030;-71
2021/12/15 07:25:32;;;;;;;58.20;30.20;;;;;;;6.06;100.00;102048.94;4961402;28;20027;-73
2021/12/15 07:28:21;;;;;;;56.53;29.80;;;;;;;6.32;100.00;102052.97;4975815;28;20077;-73
2021/12/15 07:31:09;;;;;;;54.47;27.75;;;;;;;6.32;100.00;102063.38;4975562;28;20451;-72
2021/12/15 07:33:55;;;;;;;48.15;26.80;;;;;;;6.48;100.00;102062.84;4975879;28;20329;-73
2021/12/15 07:36:46;;;;;;;50.25;26.88;;;;;;;6.39;100.00;102060.06;4975756;28;20058;-74
2021/12/15 07:39:35;;;;;;;55.72;28.33;;;;;;;6.39;100.00;102066.13;4976186;28;20027;-73
2021/12/15 07:42:30;;;;;;;51.17;27.38;;;;;;;6.36;100.00;102066.06;4975508;28;20042;-72
2021/12/15 07:45:16;;;;;;;50.53;27.67;;;;;;;6.59;100.00;102069.16;4975700;28;20042;-72
2021/12/15 07:48:04;;;;;;;52.65;27.38;;;;;;;6.71;100.00;102067.66;4961650;28;20122;-74
2021/12/15 07:50:52;;;;;;;51.80;27.88;;;;;;;6.29;100.00;102071.09;4975959;28;20121;-72
2021/12/15 07:53:40;;;;;;;51.58;27.73;;;;;;;6.49;100.00;102078.50;4975357;28;20459;-72
2021/12/15 07:56:26;;;;;;;53.53;27.75;;;;;;;6.44;100.00;102074.03;4975188;28;20042;-74
2021/12/15 07:59:12;;;;;;;56.55;29.48;;;;;;;6.49;100.00;102080.22;4975821;28;20034;-73
2021/12/15 08:01:58;;;;;;;47.78;26.23;;;;;;;6.49;100.00;102083.69;4975140;28;20093;-72
2021/12/15 08:04:43;;;;;;;48.47;25.83;;;;;;;6.52;100.00;102088.97;4975854;28;20034;-74
2021/12/15 08:07:29;;;;;;;47.97;25.98;;;;;;;6.69;100.00;102087.59;4974931;28;20036;-73
2021/12/15 08:10:16;;;;;;;51.50;26.63;;;;;;;6.75;100.00;102090.28;4961936;28;20049;-72
2021/12/15 08:13:03;;;;;;;46.63;25.90;;;;;;;6.75;100.00;102092.03;4975265;28;20463;-73
2021/12/15 08:15:49;;;;;;;46.95;25.77;;;;;;;6.98;100.00;102103.75;4975434;28;20462;-73
2021/12/15 08:18:35;;;;;;;48.53;26.80;;;;;;;6.53;100.00;102089.84;4961547;28;20039;-72
2021/12/15 08:21:23;;;;;;;45.28;23.88;;;;;;;6.38;100.00;102103.41;4975419;28;20113;-72
2021/12/15 08:24:11;;;;;;;44.47;24.55;;;;;;;6.20;100.00;102103.03;4961085;28;20109;-72
2021/12/15 08:26:56;;;;;;;43.88;23.83;;;;;;;5.68;100.00;102112.13;4961791;28;20419;-71
2021/12/15 08:29:42;;;;;;;47.67;25.15;;;;;;;6.04;100.00;102108.72;4961457;28;20066;-73
2021/12/15 08:32:28;;;;;;;51.20;25.67;;;;;;;6.08;100.00;102107.06;4975077;28;20022;-74
2021/12/15 08:35:17;;;;;;;49.70;26.08;;;;;;;6.13;100.00;102095.03;4976989;28;20411;-74
2021/12/15 08:38:06;;;;;;;43.70;24.30;;;;;;;6.44;100.00;102094.84;4979194;28;20038;-73
2021/12/15 08:40:53;;;;;;;45.70;25.60;;;;;;;6.50;100.00;102092.38;4978859;28;20038;-73
2021/12/15 08:43:39;;;;;;;46.38;26.33;;;;;;;6.45;100.00;102100.09;4964846;28;20027;-73
2021/12/15 08:46:28;;;;;;;51.78;27.52;;;;;;;6.32;100.00;102110.22;4978692;28;20038;-73
2021/12/15 08:49:18;;;;;;;50.65;25.27;;;;;;;6.69;100.00;102105.81;4964732;28;20042;-73
2021/12/15 08:52:06;;;;;;;47.05;24.90;;;;;;;6.43;100.00;102093.97;4978486;28;20026;-75
2021/12/15 08:54:52;;;;;;;42.88;24.77;;;;;;;6.07;100.00;102100.13;4978364;28;20442;-72
2021/12/15 08:57:46;;;;;;;43.20;25.08;;;;;;;6.16;100.00;102103.81;4978425;28;20118;-73
2021/12/15 09:00:32;;;;;;;48.58;26.83;;;;;;;6.45;100.00;102104.41;4978319;28;20023;-73
2021/12/15 09:03:19;;;;;;;47.40;25.83;;;;;;;6.28;100.00;102108.38;4978469;28;20053;-73
2021/12/15 09:06:05;;;;;;;46.42;25.63;;;;;;;5.90;100.00;102107.50;4978314;28;20117;-73
2021/12/15 09:08:51;;;;;;;52.00;26.60;;;;;;;5.95;100.00;102107.63;4978125;28;20114;-73
2021/12/15 09:11:38;;;;;;;44.75;25.65;;;;;;;6.27;100.00;102102.28;4964642;28;20045;-72
2021/12/15 09:14:24;;;;;;;45.75;26.40;;;;;;;6.54;100.00;102104.59;4978574;28;20522;-74
2021/12/15 09:17:10;;;;;;;43.78;25.05;;;;;;;6.34;100.00;102096.38;4977781;28;20126;-73
2021/12/15 09:19:55;;;;;;;45.58;25.73;;;;;;;6.11;100.00;102101.94;4977718;28;20444;-74
2021/12/15 09:22:42;;;;;;;46.97;25.75;;;;;;;6.42;100.00;102100.03;4978157;28;20045;-72
2021/12/15 09:25:28;;;;;;;51.45;25.75;;;;;;;6.52;100.00;102096.78;4977709;28;20426;-72
2021/12/15 09:28:15;;;;;;;53.42;27.85;;;;;;;6.28;100.00;102093.66;4977661;28;20027;-72
2021/12/15 09:31:03;;;;;;;56.08;29.10;;;;;;;6.03;100.00;102093.94;4978126;28;20026;-73
2021/12/15 09:33:51;;;;;;;57.20;28.52;;;;;;;6.07;100.00;102095.78;4978527;28;20093;-72
2021/12/15 09:36:38;;;;;;;55.85;29.33;;;;;;;6.20;100.00;102094.34;4964169;28;20031;-74
2021/12/15 09:39:25;;;;;;;61.65;31.15;;;;;;;6.11;100.00;102081.97;4977791;28;20027;-73
2021/12/15 09:42:12;;;;;;;59.22;28.58;;;;;;;6.20;100.00;102083.94;4977603;28;20324;-73
2021/12/15 09:45:15;;;;;;;58.25;30.00;;;;;;;6.01;100.00;102086.94;4977562;28;20105;-72
2021/12/15 10:03:11;;;;;;;57.65;29.40;;;;;;;6.46;100.00;102093.16;4977648;28;20069;-72
2021/12/15 10:06:21;;;;;;;54.35;27.60;;;;;;;6.25;100.00;102091.00;4976992;28;20030;-71
2021/12/15 10:18:54;;;;;;;50.15;26.67;;;;;;;6.14;100.00;102082.06;4976321;28;20058;-71
2021/12/15 10:21:34;;;;;;;50.28;26.40;;;;;;;6.27;100.00;102080.63;4976678;28;20042;-74
2021/12/15 10:24:27;;;;;;;49.13;28.33;;;;;;;6.46;100.00;102082.75;4976676;28;20345;-72
2021/12/15 10:27:18;;;;;;;47.53;26.25;;;;;;;6.08;100.00;102081.06;4976825;28;20363;-73
2021/12/15 10:30:26;;;;;;;46.42;25.77;;;;;;;6.34;100.00;102074.69;4976650;28;20023;-72
2021/12/15 10:33:13;;;;;;;43.53;24.83;;;;;;;6.45;100.00;102073.19;4976602;28;20057;-73
2021/12/15 10:35:59;;;;;;;46.20;25.55;;;;;;;6.38;100.00;102068.72;4976525;28;20041;-72
2021/12/15 10:38:53;;;;;;;48.80;25.95;;;;;;;6.28;100.00;102070.25;4976501;28;20360;-73
2021/12/15 10:41:43;;;;;;;44.85;25.92;;;;;;;6.48;100.00;102068.94;4976903;28;20359;-73
2021/12/15 10:44:29;;;;;;;44.38;25.42;;;;;;;6.75;100.00;102066.84;4976613;28;20027;-72
2021/12/15 10:47:23;;;;;;;42.08;24.67;;;;;;;6.33;100.00;102067.72;4976536;28;20056;-73
2021/12/15 10:50:17;;;;;;;45.58;24.90;;;;;;;6.59;100.00;102066.53;4976211;28;20023;-73
2021/12/15 10:53:03;;;;;;;50.47;26.25;;;;;;;6.79;100.00;102065.22;4976287;28;20023;-72
2021/12/15 10:55:51;;;;;;;46.53;24.65;;;;;;;6.21;100.00;102063.13;4975913;28;20477;-73
2021/12/15 10:58:41;;;;;;;49.25;25.70;;;;;;;6.74;100.00;102059.00;4978132;28;20026;-72
2021/12/15 11:01:52;;;;;;;46.42;23.92;;;;;;;6.51;100.00;102055.09;4962186;28;20030;-71
2021/12/15 11:04:43;;;;;;;48.13;25.73;;;;;;;6.62;100.00;102061.38;4962430;28;20022;-72
2021/12/15 11:07:32;;;;;;;45.03;24.83;;;;;;;6.77;100.00;102061.69;4976073;28;20105;-72
2021/12/15 11:10:25;;;;;;;44.95;25.90;;;;;;;6.40;100.00;102054.00;4976217;28;20093;-73
2021/12/15 11:13:14;;;;;;;53.55;29.90;;;;;;;6.39;100.00;102058.31;4975855;28;20069;-71
2021/12/15 11:16:04;;;;;;;46.08;26.45;;;;;;;6.22;100.00;102048.41;4975986;28;20026;-74
2021/12/15 11:18:50;;;;;;;70.00;35.45;;;;;;;6.68;100.00;102051.09;4976194;28;20050;-73
2021/12/15 11:21:36;;;;;;;43.95;24.77;;;;;;;6.77;100.00;102056.47;4976560;28;20027;-72
2021/12/15 11:24:23;;;;;;;38.13;22.88;;;;;;;6.52;100.00;102044.72;4975732;28;20160;-74
2021/12/15 11:27:19;;;;;;;44.45;23.30;;;;;;;6.06;100.00;102041.97;4975715;28;20027;-73
2021/12/15 11:30:19;;;;;;;41.08;23.33;;;;;;;6.48;100.00;102042.91;4975827;28;20349;-72
2021/12/15 11:33:16;;;;;;;43.03;23.73;;;;;;;6.28;100.00;102040.72;4976117;28;20498;-71
2021/12/15 11:36:29;;;;;;;47.88;26.17;;;;;;;6.30;100.00;102031.25;4975693;28;20042;-72
2021/12/15 11:39:17;;;;;;;42.85;23.55;;;;;;;6.29;100.00;102032.97;4975843;28;20093;-71
2021/12/15 11:42:04;;;;;;;44.30;24.77;;;;;;;6.52;100.00;102026.50;4962575;28;20026;-73
2021/12/15 11:44:49;;;;;;;42.67;24.70;;;;;;;6.51;100.00;102024.72;4975572;28;20019;-72
2021/12/15 11:47:37;;;;;;;42.53;24.52;;;;;;;6.03;100.00;102020.25;4975664;28;20026;-71
2021/12/15 11:50:22;;;;;;;46.75;25.33;;;;;;;6.33;100.00;102023.47;4975412;28;20054;-72
2021/12/15 11:53:34;;;;;;;45.72;26.15;;;;;;;6.47;100.00;102017.69;4975667;28;20027;-72
2021/12/15 11:56:25;;;;;;;42.72;24.85;;;;;;;6.63;100.00;102016.28;4975369;28;20030;-72
2021/12/15 11:59:33;;;;;;;45.58;25.58;;;;;;;6.64;100.00;102008.50;4975864;28;20451;-72
2021/12/15 12:02:26;;;;;;;44.53;25.40;;;;;;;6.56;100.00;102002.28;4975382;28;20079;-72
2021/12/15 12:05:18;;;;;;;45.40;24.70;;;;;;;6.36;100.00;102002.72;4975354;28;20081;-73
2021/12/15 12:08:10;;;;;;;43.15;24.38;;;;;;;6.38;100.00;101994.09;4975130;28;20026;-72
2021/12/15 12:11:04;;;;;;;47.65;26.92;;;;;;;6.65;100.00;101999.84;4978542;28;20045;-72
2021/12/15 12:13:51;;;;;;;45.30;25.10;;;;;;;6.34;100.00;102000.09;4965538;28;20022;-73
2021/12/15 12:16:37;;;;;;;44.75;25.00;;;;;;;6.50;100.00;101999.53;4979483;28;20329;-73
2021/12/15 12:19:23;;;;;;;43.60;24.50;;;;;;;6.63;100.00;101998.91;4978981;28;20117;-73
2021/12/15 12:22:11;;;;;;;47.50;26.67;;;;;;;6.70;100.00;101998.19;4979110;28;20027;-72
2021/12/15 12:25:00;;;;;;;43.83;25.23;;;;;;;6.44;100.00;102008.97;4978921;28;20035;-72
2021/12/15 12:27:48;;;;;;;47.20;25.25;;;;;;;6.73;100.00;101995.66;4979309;28;20031;-73
2021/12/15 12:30:47;;;;;;;45.55;25.80;;;;;;;7.07;100.00;101977.13;4965181;28;20066;-73
2021/12/15 12:33:34;;;;;;;46.17;24.63;;;;;;;6.57;100.00;101979.69;4965443;28;20022;-72
2021/12/15 12:36:26;;;;;;;43.47;24.70;;;;;;;6.51;100.00;101975.25;4978735;28;20451;-72
2021/12/15 12:39:14;;;;;;;44.35;24.20;;;;;;;6.52;100.00;101973.53;4978771;28;20038;-72
2021/12/15 12:42:00;;;;;;;42.63;23.35;;;;;;;6.40;100.00;101981.13;4978940;28;20026;-73
2021/12/15 12:44:50;;;;;;;46.13;24.20;;;;;;;6.46;100.00;101987.31;4978842;28;20042;-72
2021/12/15 12:47:42;;;;;;;41.13;23.58;;;;;;;6.60;100.00;101983.25;4979611;28;20126;-71
2021/12/15 13:00:32;;;;;;;41.08;23.33;;;;;;;6.77;100.00;101983.53;4978559;28;20035;-71
2021/12/15 13:03:34;;;;;;;42.97;24.58;;;;;;;6.73;100.00;101990.44;4965153;28;20030;-72
2021/12/15 13:06:29;;;;;;;41.03;23.45;;;;;;;6.60;100.00;101993.66;4978337;28;20038;-73
2021/12/15 13:09:17;;;;;;;43.15;23.52;;;;;;;6.55;100.00;101994.44;4978719;28;20054;-73
2021/12/15 13:12:24;;;;;;;43.72;23.13;;;;;;;6.57;100.00;101996.22;4978351;28;20023;-72
2021/12/15 13:15:10;;;;;;;39.47;23.48;;;;;;;6.70;100.00;101997.28;4978037;28;20026;-73
2021/12/15 13:18:03;;;;;;;40.42;23.92;;;;;;;6.44;100.00;102002.03;4978367;28;20134;-73
2021/12/15 13:20:55;;;;;;;44.50;23.83;;;;;;;6.69;100.00;102006.84;4963727;28;20519;-73
2021/12/15 13:23:55;;;;;;;40.53;22.40;;;;;;;6.59;100.00;102001.44;4964629;28;20044;-73
2021/12/15 13:29:52;;;;;;;41.10;23.77;;;;;;;6.56;100.00;102006.59;4977781;28;20023;-73
2021/12/15 13:32:46;;;;;;;36.83;22.88;;;;;;;6.68;100.00;102010.31;4978269;28;20448;-73
2021/12/15 13:35:39;;;;;;;39.40;23.10;;;;;;;6.90;100.00;102011.56;4977860;28;20525;-73
2021/12/15 13:38:52;;;;;;;45.00;26.23;;;;;;;7.02;100.00;102007.47;4963403;28;20018;-72
2021/12/15 13:41:44;;;;;;;44.95;26.17;;;;;;;6.98;100.00;102013.47;4977915;28;20041;-73
2021/12/15 13:44:35;;;;;;;38.00;22.48;;;;;;;7.17;100.00;102015.53;4977469;28;20031;-73
2021/12/15 13:47:24;;;;;;;41.25;24.02;;;;;;;6.92;100.00;102020.28;4977828;28;20038;-73
2021/12/15 13:50:19;;;;;;;39.47;23.08;;;;;;;7.01;100.00;102020.44;4963084;28;20018;-74
2021/12/15 13:53:05;;;;;;;38.15;23.42;;;;;;;6.75;100.00;102014.75;4977532;28;20027;-73
2021/12/15 13:55:51;;;;;;;42.97;25.15;;;;;;;6.82;100.00;102015.75;4976989;28;20031;-73
2021/12/15 13:58:37;;;;;;;44.00;26.58;;;;;;;6.95;100.00;102009.94;4977292;28;20030;-73
2021/12/15 14:01:23;;;;;;;43.78;25.85;;;;;;;7.09;100.00;102017.16;4977498;28;20062;-74
2021/12/15 14:04:08;;;;;;;41.60;23.75;;;;;;;6.89;100.00;102028.94;4964105;28;20467;-74
2021/12/15 14:06:54;;;;;;;37.78;22.70;;;;;;;6.91;100.00;102021.16;4976939;28;20027;-73
2021/12/15 14:09:40;;;;;;;40.03;23.80;;;;;;;6.92;100.00;102022.91;4977289;28;20026;-73
2021/12/15 14:12:44;;;;;;;40.53;24.05;;;;;;;7.04;100.00;102026.63;4977591;28;20049;-74
2021/12/15 14:15:40;;;;;;;39.03;23.05;;;;;;;6.71;100.00;102027.72;4976792;28;20085;-73
2021/12/15 14:18:29;;;;;;;41.92;23.70;;;;;;;7.24;100.00;102024.34;4976733;28;20050;-74
2021/12/15 14:21:18;;;;;;;49.28;26.90;;;;;;;7.19;100.00;102029.47;4976915;28;20031;-75
2021/12/15 14:24:05;;;;;;;45.85;26.58;;;;;;;7.64;100.00;102021.50;4976939;28;20022;-76
2021/12/15 14:26:51;;;;;;;51.50;27.50;;;;;;;7.60;100.00;102023.19;4976691;28;20093;-74
2021/12/15 14:29:37;;;;;;;48.13;26.73;;;;;;;7.08;100.00;102035.34;4977064;28;20065;-75
2021/12/15 14:32:27;;;;;;;42.30;23.98;;;;;;;7.13;100.00;102039.81;4962276;28;20022;-72
2021/12/15 14:35:30;;;;;;;45.28;25.35;;;;;;;7.12;100.00;102037.16;4976821;28;20035;-74
2021/12/15 14:38:16;;;;;;;41.35;24.98;;;;;;;7.13;100.00;102039.81;4976459;28;20038;-73
2021/12/15 14:41:10;;;;;;;50.83;26.25;;;;;;;7.30;100.00;102042.66;4976665;28;20054;-73
2021/12/15 14:44:02;;;;;;;48.72;26.90;;;;;;;6.89;100.00;102046.28;4962691;28;20034;-74
2021/12/15 14:46:56;;;;;;;42.92;25.63;;;;;;;7.13;100.00;102052.81;4976928;28;20027;-74
2021/12/15 14:49:45;;;;;;;44.85;26.15;;;;;;;7.23;100.00;102059.09;4962560;28;20117;-74
2021/12/15 14:52:41;;;;;;;50.95;28.05;;;;;;;6.80;100.00;102056.53;4976652;28;20077;-75
2021/12/15 14:55:30;;;;;;;58.33;29.25;;;;;;;7.24;100.00;102059.09;4975985;28;20050;-73
2021/12/15 14:58:23;;;;;;;49.88;27.63;;;;;;;7.39;100.00;102055.88;4976695;28;20023;-73
2021/12/15 15:01:14;;;;;;;49.05;29.20;;;;;;;7.12;100.00;102056.25;4976058;28;20375;-74
2021/12/15 15:04:06;;;;;;;53.05;29.65;;;;;;;7.57;100.00;102050.97;4976046;28;20170;-74
2021/12/15 15:06:58;;;;;;;50.33;29.88;;;;;;;7.42;100.00;102051.59;4975838;28;20034;-73
2021/12/15 15:09:49;;;;;;;54.75;31.25;;;;;;;7.45;100.00;102061.19;4976407;28;20483;-74
2021/12/15 15:12:36;;;;;;;50.97;29.10;;;;;;;7.36;100.00;102064.50;4976066;28;20022;-73
2021/12/15 15:15:30;;;;;;;46.42;26.55;;;;;;;7.45;100.00;102064.69;4976003;28;20019;-73
2021/12/15 15:18:28;;;;;;;45.92;27.27;;;;;;;7.23;100.00;102064.31;4975462;28;20153;-72
2021/12/15 15:21:14;;;;;;;46.88;27.95;;;;;;;7.35;100.00;102067.97;4962477;28;20093;-74
2021/12/15 15:24:00;;;;;;;49.28;28.95;;;;;;;7.24;100.00;102061.69;4962783;28;20065;-72
2021/12/15 15:27:05;;;;;;;51.00;28.13;;;;;;;7.10;100.00;102072.72;4975682;28;20022;-73
2021/12/15 15:29:57;;;;;;;48.20;28.10;;;;;;;7.30;100.00;102073.94;4975648;28;20030;-74
2021/12/15 15:32:44;;;;;;;49.50;27.50;;;;;;;7.16;100.00;102072.84;4961551;28;20023;-72
2021/12/15 15:35:37;;;;;;;46.60;27.17;;;;;;;7.44;100.00;102080.31;4975390;28;20122;-73
2021/12/15 15:38:30;;;;;;;47.00;28.17;;;;;;;7.07;100.00;102077.91;4975693;28;20023;-74
2021/12/15 15:41:21;;;;;;;53.53;28.95;;;;;;;7.15;100.00;102079.78;4975586;28;20022;-73
2021/12/15 15:44:08;;;;;;;47.90;28.05;;;;;;;7.18;100.00;102077.22;4960421;28;20409;-74
2021/12/15 15:46:54;;;;;;;50.17;28.77;;;;;;;7.24;100.00;102081.69;4961929;28;20034;-74
2021/12/15 15:49:57;;;;;;;48.95;28.65;;;;;;;7.62;100.00;102072.75;4975247;28;20125;-74
2021/12/15 15:52:47;;;;;;;45.63;26.98;;;;;;;7.66;100.00;102072.84;4976106;28;20031;-74
2021/12/15 15:55:33;;;;;;;48.60;28.70;;;;;;;7.92;100.00;102070.63;4975362;28;20136;-73
2021/12/15 15:58:19;;;;;;;61.58;36.20;;;;;;;7.41;100.00;102070.69;4975446;28;20034;-73
2021/12/15 16:01:10;;;;;;;44.40;27.05;;;;;;;7.44;100.00;102069.88;4975177;28;20042;-73
2021/12/15 16:04:00;;;;;;;46.85;28.23;;;;;;;7.25;100.00;102083.44;4975801;28;20039;-73
2021/12/15 16:06:46;;;;;;;47.13;27.60;;;;;;;7.18;100.00;102077.22;4975354;28;20061;-74
2021/12/15 16:09:38;;;;;;;46.78;28.40;;;;;;;6.97;100.00;102078.56;4975205;28;20031;-73
2021/12/15 16:12:26;;;;;;;45.33;28.45;;;;;;;7.36;100.00;102081.91;4975331;28;20030;-73
2021/12/15 16:15:12;;;;;;;47.13;28.55;;;;;;;7.47;100.00;102082.97;4961916;28;20093;-74
2021/12/15 16:17:57;;;;;;;47.15;28.75;;;;;;;7.24;100.00;102076.47;4961360;28;20456;-73
2021/12/15 16:21:15;;;;;;;50.67;29.17;;;;;;;6.97;100.00;102078.56;4975716;28;20102;-74
2021/12/15 16:24:15;;;;;;;49.30;28.63;;;;;;;6.91;100.00;102075.88;4975375;28;20114;-73
2021/12/15 16:27:01;;;;;;;53.45;29.90;;;;;;;6.86;100.00;102074.88;4975145;28;20035;-73
2021/12/15 16:29:53;;;;;;;50.25;29.80;;;;;;;7.36;100.00;102080.16;4975430;28;20042;-74
2021/12/15 16:32:43;;;;;;;55.33;30.77;;;;;;;7.25;100.00;102079.09;4975117;28;20105;-73
2021/12/15 16:35:32;;;;;;;50.33;30.65;;;;;;;7.30;100.00;102081.78;4975466;28;20451;-72
2021/12/15 16:38:27;;;;;;;55.90;29.65;;;;;;;7.05;100.00;102076.97;4974921;28;20023;-73
2021/12/15 16:41:36;;;;;;;53.67;30.35;;;;;;;7.32;100.00;102086.16;4975119;28;20046;-74
2021/12/15 16:44:26;;;;;;;48.15;28.60;;;;;;;6.72;100.00;102081.56;4974921;28;20110;-74
2021/12/15 16:47:13;;;;;;;52.25;29.80;;;;;;;7.07;100.00;102077.91;4974817;28;20026;-73
2021/12/15 16:50:00;;;;;;;51.15;29.35;;;;;;;7.12;100.00;102081.47;4974719;28;20136;-73
2021/12/15 16:52:46;;;;;;;52.25;28.95;;;;;;;6.84;100.00;102074.88;4975771;28;20072;-73
2021/12/15 16:55:32;;;;;;;48.75;30.17;;;;;;;6.75;100.00;102081.63;4974942;28;20045;-74
2021/12/15 16:58:18;;;;;;;51.72;29.67;;;;;;;7.25;100.00;102083.44;4978511;28;20364;-73
2021/12/15 17:01:06;;;;;;;48.63;28.75;;;;;;;7.37;100.00;102087.16;4978329;28;20031;-73
2021/12/15 17:03:56;;;;;;;48.70;29.17;;;;;;;7.40;100.00;102088.91;4978438;28;20031;-73
2021/12/15 17:06:42;;;;;;;45.00;27.65;;;;;;;7.50;100.00;102080.38;4964396;28;20439;-73
2021/12/15 17:09:33;;;;;;;43.33;26.90;;;;;;;7.45;100.00;102089.88;4978677;28;20027;-74
2021/12/15 17:12:23;;;;;;;45.38;27.13;;;;;;;7.70;100.00;102087.69;4978371;28;20598;-73
2021/12/15 17:15:20;;;;;;;44.10;27.45;;;;;;;7.86;100.00;102089.69;4978549;28;20042;-73
2021/12/15 17:18:37;;;;;;;44.60;27.23;;;;;;;7.46;100.00;102089.91;4977833;28;20070;-72
2021/12/15 17:21:26;;;;;;;41.60;24.80;;;;;;;7.59;100.00;102089.25;4978147;28;20031;-74
2021/12/15 17:24:12;;;;;;;42.42;25.75;;;;;;;7.64;100.00;102089.34;4978314;28;20031;-73
2021/12/15 17:27:01;;;;;;;52.08;28.35;;;;;;;7.33;100.00;102093.16;4964063;28;20035;-73
2021/12/15 17:29:47;;;;;;;40.20;24.58;;;;;;;7.07;100.00;102096.16;4977944;28;20034;-72
2021/12/15 17:32:34;;;;;;;47.58;25.33;;;;;;;7.23;100.00;102099.03;4964274;28;20367;-74
2021/12/15 17:35:20;;;;;;;42.30;25.20;;;;;;;7.78;100.00;102098.22;4977929;28;20019;-72
2021/12/15 17:38:43;;;;;;;45.13;25.33;;;;;;;7.72;100.00;102093.78;4977514;28;20034;-73
2021/12/15 17:41:37;;;;;;;44.75;24.70;;;;;;;7.85;100.00;102090.56;4977836;28;20045;-74